リーブルヴィル の空港の天気 - METARとTAF

リーブルヴィル国際空港 ( FOOL / LBV ) - ガボン リーブルヴィル
飛行場実況気象(Metar)
観測時間08/17 12:30 WAT (08/17 11:30 UTC)
風向・風速南南西 3m/s
視程10km以上
天気現象
全天の4割程度の雲 雲底高度 430m
気温28℃
湿度66%
気圧1014hPa
METARFOOL 171130Z 20005KT 170V230 9999 SCT014 28/21 Q1014 NOSIG
過去の天気等 Google飛行場航空写真 Wunderground天気予報

過去48時間のMETAR

飛行場予報(TAF)
発表時間: 8/17 12:00 WAT (8/17 11:00 UTC)
予報対象時間: 17日13時 WAT ~ 18日19時 WAT
風向・風速南 3m/s
視程10km以上
全天の4割程度の雲 雲底高度 370m
全天の8割程度の雲 雲底高度 1010m
TAF FOOL 171100Z 1712/1818 17006KT 9999 SCT012 BKN033